createdAt,value
2023-05-03T00:02:10.988Z,13.40
2023-05-03T00:04:38.692Z,12.35
2023-05-03T00:07:05.603Z,16.00
2023-05-03T00:09:35.599Z,10.45
2023-05-03T00:12:02.955Z,12.02
2023-05-03T00:14:30.389Z,15.30
2023-05-03T00:16:58.101Z,12.00
2023-05-03T00:19:31.740Z,17.25
2023-05-03T00:21:59.742Z,16.55
2023-05-03T00:24:27.591Z,20.27
2023-05-03T00:26:54.697Z,24.70
2023-05-03T00:29:23.054Z,16.75
2023-05-03T00:31:50.169Z,17.02
2023-05-03T00:34:17.209Z,10.35
2023-05-03T00:36:44.181Z,18.25
2023-05-03T00:39:11.647Z,18.52
2023-05-03T00:41:39.834Z,16.75
2023-05-03T00:44:06.982Z,10.18
2023-05-03T00:46:35.306Z,10.52
2023-05-03T00:49:02.514Z,11.07
2023-05-03T00:51:29.527Z,15.05
2023-05-03T00:53:56.979Z,16.25
2023-05-03T00:56:24.209Z,12.75
2023-05-03T00:58:54.747Z,13.20
2023-05-03T01:01:22.265Z,14.80
2023-05-03T01:03:50.706Z,15.40
2023-05-03T01:06:17.827Z,12.55
2023-05-03T01:08:55.631Z,13.95
2023-05-03T01:11:48.315Z,17.00
2023-05-03T01:14:28.882Z,15.18
2023-05-03T01:17:06.190Z,12.85
2023-05-03T01:19:44.429Z,38.88
2023-05-03T01:22:12.206Z,34.90
2023-05-03T01:24:42.573Z,22.65
2023-05-03T01:27:09.594Z,37.28
2023-05-03T01:29:36.540Z,20.55
2023-05-03T01:32:09.353Z,23.58
2023-05-03T01:34:49.248Z,12.10
2023-05-03T01:37:17.521Z,15.65
2023-05-03T01:40:01.734Z,16.13
2023-05-03T01:42:30.826Z,12.27
2023-05-03T01:44:58.935Z,14.27
2023-05-03T01:47:27.963Z,12.63
2023-05-03T01:49:54.888Z,14.95
2023-05-03T01:52:21.905Z,26.85
2023-05-03T01:54:48.843Z,21.30
2023-05-03T01:57:15.987Z,37.92
2023-05-03T01:59:42.926Z,18.88
2023-05-03T02:02:09.913Z,18.15
2023-05-03T02:04:36.963Z,20.65
2023-05-03T02:07:04.048Z,13.93
2023-05-03T02:09:31.000Z,22.63
2023-05-03T02:11:57.903Z,18.50
2023-05-03T02:14:24.967Z,17.65
2023-05-03T02:16:52.092Z,15.60
2023-05-03T02:19:19.230Z,12.02
2023-05-03T02:21:46.124Z,19.55
2023-05-03T02:24:13.486Z,13.05
2023-05-03T02:26:40.830Z,13.82
2023-05-03T02:29:10.097Z,18.05
2023-05-03T02:31:37.234Z,10.65
2023-05-03T02:34:05.161Z,18.02
2023-05-03T02:36:32.263Z,14.95
2023-05-03T02:39:01.452Z,28.80
2023-05-03T02:41:28.851Z,13.88
2023-05-03T02:43:56.558Z,14.60
2023-05-03T02:46:26.530Z,22.08
2023-05-03T02:48:53.866Z,12.13
2023-05-03T02:51:21.103Z,12.60
2023-05-03T02:53:48.309Z,15.30
2023-05-03T02:56:15.247Z,13.73
2023-05-03T02:58:42.252Z,12.90
2023-05-03T03:01:10.963Z,18.05
2023-05-03T03:03:38.098Z,11.98
2023-05-03T03:06:05.476Z,12.50
2023-05-03T03:08:36.534Z,12.98
2023-05-03T03:11:05.636Z,9.27
2023-05-03T03:13:33.505Z,12.20
2023-05-03T03:16:02.053Z,9.50
2023-05-03T03:18:29.345Z,17.98
2023-05-03T03:20:56.260Z,13.48
2023-05-03T03:23:23.419Z,11.32
2023-05-03T03:25:51.253Z,10.93
2023-05-03T03:28:19.171Z,8.25
2023-05-03T03:30:46.981Z,14.48
2023-05-03T03:33:24.438Z,15.73
2023-05-03T03:35:54.572Z,14.10
2023-05-03T03:38:25.966Z,13.05
2023-05-03T03:40:59.125Z,13.70
2023-05-03T03:43:26.484Z,9.25
2023-05-03T03:45:54.228Z,11.07
2023-05-03T03:48:23.472Z,8.85
2023-05-03T03:50:51.252Z,13.85
2023-05-03T03:53:20.882Z,9.38
2023-05-03T03:55:48.516Z,12.43
2023-05-03T03:58:17.555Z,11.68
2023-05-03T04:00:45.418Z,16.70
2023-05-03T04:03:17.015Z,12.63
2023-05-03T04:05:44.010Z,10.48
2023-05-03T04:08:11.033Z,6.85
2023-05-03T04:10:39.801Z,9.75
2023-05-03T04:13:07.153Z,10.52
2023-05-03T04:15:34.596Z,7.35
2023-05-03T04:18:03.843Z,10.65
2023-05-03T04:20:31.894Z,6.13
2023-05-03T04:23:01.460Z,11.15
2023-05-03T04:25:33.424Z,11.25
2023-05-03T04:28:06.979Z,10.73
2023-05-03T04:30:36.269Z,10.38
2023-05-03T04:33:04.353Z,7.65
2023-05-03T04:35:34.303Z,13.75
2023-05-03T04:38:06.095Z,8.80
2023-05-03T04:40:34.388Z,16.77
2023-05-03T04:43:06.335Z,13.25
2023-05-03T04:45:38.100Z,9.93
2023-05-03T04:48:07.139Z,9.35
2023-05-03T04:50:34.422Z,13.38
2023-05-03T04:53:02.225Z,9.55
2023-05-03T04:55:31.012Z,13.18
2023-05-03T04:57:59.363Z,11.23
2023-05-03T05:00:26.356Z,6.85
2023-05-03T05:02:59.378Z,9.75
2023-05-03T05:05:29.304Z,21.83
2023-05-03T05:07:58.443Z,12.57
2023-05-03T05:10:28.627Z,9.50
2023-05-03T05:12:56.753Z,11.82
2023-05-03T05:15:24.147Z,10.73
2023-05-03T05:17:51.683Z,11.60
2023-05-03T05:20:20.345Z,15.50
2023-05-03T05:22:49.887Z,13.55
2023-05-03T05:25:16.989Z,10.55
2023-05-03T05:27:44.266Z,13.57
2023-05-03T05:30:11.468Z,13.80
2023-05-03T05:32:41.024Z,16.67
2023-05-03T05:35:11.119Z,14.88
2023-05-03T05:37:38.643Z,9.73
2023-05-03T05:40:07.945Z,11.80
2023-05-03T05:45:10.523Z,13.10
2023-05-03T05:47:38.787Z,12.05
2023-05-03T05:50:15.281Z,10.18
2023-05-03T05:52:46.923Z,12.15
2023-05-03T05:55:16.031Z,15.23
2023-05-03T05:57:44.950Z,12.35
2023-05-03T06:00:17.559Z,10.88
2023-05-03T06:02:45.850Z,11.50
2023-05-03T06:05:16.968Z,14.52
2023-05-03T06:07:44.206Z,14.02
2023-05-03T06:10:11.536Z,13.90
2023-05-03T06:12:41.032Z,11.80
2023-05-03T06:15:14.107Z,14.68
2023-05-03T06:17:41.461Z,12.95
2023-05-03T06:20:14.571Z,16.42
2023-05-03T06:22:42.522Z,13.57
2023-05-03T06:25:14.086Z,8.65
2023-05-03T06:27:44.132Z,19.05
2023-05-03T06:30:12.410Z,18.45
2023-05-03T06:32:42.335Z,13.68
2023-05-03T06:35:10.266Z,13.75
2023-05-03T06:37:39.182Z,18.23
2023-05-03T06:40:07.968Z,16.85
2023-05-03T06:42:36.991Z,10.43
2023-05-03T06:45:14.059Z,15.10
2023-05-03T06:47:42.913Z,20.85
2023-05-03T06:50:14.050Z,11.88
2023-05-03T06:52:41.432Z,10.30
2023-05-03T06:55:09.531Z,8.80
2023-05-03T06:57:36.500Z,14.07
2023-05-03T07:00:07.491Z,25.85
2023-05-03T07:02:34.955Z,20.30
2023-05-03T07:05:02.141Z,15.55
2023-05-03T07:07:29.160Z,11.52
2023-05-03T07:09:56.120Z,15.48
2023-05-03T07:12:27.756Z,15.60
2023-05-03T07:14:55.719Z,16.17
2023-05-03T07:17:23.330Z,18.58
2023-05-03T07:19:51.599Z,13.23
2023-05-03T07:22:21.382Z,16.13
2023-05-03T07:24:48.449Z,9.15
2023-05-03T07:27:15.686Z,11.00
2023-05-03T07:29:42.635Z,12.30
2023-05-03T07:32:09.574Z,18.70
2023-05-03T07:34:36.558Z,9.32
2023-05-03T07:37:04.184Z,7.78
2023-05-03T07:39:31.250Z,12.25
2023-05-03T07:41:58.214Z,9.60
2023-05-03T07:44:25.324Z,13.57
2023-05-03T07:46:52.420Z,14.05
2023-05-03T07:49:19.382Z,18.02
2023-05-03T07:51:46.350Z,13.40
2023-05-03T07:54:13.372Z,13.43
2023-05-03T07:56:40.346Z,13.65
2023-05-03T07:59:10.308Z,14.50
2023-05-03T08:01:38.133Z,8.98
2023-05-03T08:04:05.729Z,14.40
2023-05-03T08:06:33.552Z,17.05
2023-05-03T08:09:00.953Z,11.38
2023-05-03T08:11:29.345Z,13.95
2023-05-03T08:13:56.891Z,10.93
2023-05-03T08:16:23.986Z,15.32
2023-05-03T08:18:51.774Z,16.48
2023-05-03T08:21:19.259Z,14.52
2023-05-03T08:23:46.523Z,8.88
2023-05-03T08:26:14.777Z,13.10
2023-05-03T08:28:42.245Z,12.10
2023-05-03T08:31:09.775Z,14.88
2023-05-03T08:33:37.178Z,11.65
2023-05-03T08:36:04.488Z,12.52
2023-05-03T08:38:31.600Z,13.63
2023-05-03T08:40:59.839Z,12.10
2023-05-03T08:43:28.827Z,19.15
2023-05-03T08:45:56.275Z,10.95
2023-05-03T08:48:23.828Z,14.43
2023-05-03T08:50:52.237Z,17.92
2023-05-03T08:53:19.470Z,13.55
2023-05-03T08:55:46.413Z,12.50
2023-05-03T08:58:13.751Z,13.10
2023-05-03T09:00:45.495Z,10.93
2023-05-03T09:03:13.277Z,15.75
2023-05-03T09:05:44.335Z,16.88
2023-05-03T09:08:17.266Z,16.20
2023-05-03T09:10:44.545Z,15.77
2023-05-03T09:13:12.222Z,18.02
2023-05-03T09:15:39.301Z,17.10
2023-05-03T09:18:16.207Z,7.22
2023-05-03T09:20:51.805Z,15.77
2023-05-03T09:23:28.816Z,12.07
2023-05-03T09:25:56.154Z,18.60
2023-05-03T09:28:23.802Z,16.70
2023-05-03T09:31:03.988Z,10.52
2023-05-03T09:33:30.948Z,17.75
2023-05-03T09:36:03.490Z,11.93
2023-05-03T09:38:36.946Z,12.30
2023-05-03T09:41:06.881Z,13.13
2023-05-03T09:43:36.017Z,16.33
2023-05-03T09:46:10.845Z,15.32
2023-05-03T09:48:39.451Z,7.18
2023-05-03T09:51:07.235Z,11.63
2023-05-03T09:53:37.924Z,9.95
2023-05-03T09:56:09.076Z,7.93
2023-05-03T09:58:36.540Z,8.35
2023-05-03T10:01:03.591Z,12.90
2023-05-03T10:03:41.545Z,5.72
2023-05-03T10:06:23.288Z,11.43
2023-05-03T10:08:55.035Z,9.57
2023-05-03T10:11:26.907Z,6.22
2023-05-03T10:13:55.924Z,3.13
2023-05-03T10:16:50.758Z,10.95
2023-05-03T10:19:28.075Z,14.07
2023-05-03T10:22:07.940Z,6.80
2023-05-03T10:25:03.410Z,9.38
2023-05-03T10:27:51.951Z,6.30
2023-05-03T10:30:32.727Z,6.68
2023-05-03T10:33:00.679Z,11.35
2023-05-03T10:35:29.728Z,10.00
2023-05-03T10:37:57.222Z,7.90
2023-05-03T10:40:24.736Z,8.30
2023-05-03T10:42:56.535Z,10.45
2023-05-03T10:45:28.834Z,8.95
2023-05-03T10:48:25.824Z,12.63
2023-05-03T10:50:53.133Z,6.78
2023-05-03T10:53:41.328Z,11.45
2023-05-03T10:56:13.742Z,17.52
2023-05-03T10:58:45.497Z,11.52
2023-05-03T11:01:20.258Z,11.18
2023-05-03T11:04:08.509Z,8.07
2023-05-03T11:06:46.134Z,9.60
2023-05-03T11:09:15.055Z,10.38
2023-05-03T11:11:42.621Z,5.97
2023-05-03T11:14:10.434Z,7.45
2023-05-03T11:16:40.771Z,9.30
2023-05-03T11:19:08.123Z,19.77
2023-05-03T11:21:35.170Z,8.93
2023-05-03T11:24:02.555Z,11.02
2023-05-03T11:26:35.208Z,10.73
2023-05-03T11:29:02.168Z,16.55
2023-05-03T11:31:29.258Z,3.15
2023-05-03T11:33:56.696Z,13.88
2023-05-03T11:36:23.595Z,6.32
2023-05-03T11:38:50.588Z,9.55
2023-05-03T11:41:18.247Z,5.97
2023-05-03T11:43:47.641Z,6.35
2023-05-03T11:46:22.204Z,11.38
2023-05-03T11:48:49.352Z,10.07
2023-05-03T11:51:22.507Z,14.32
2023-05-03T11:53:49.967Z,3.88
2023-05-03T11:56:20.417Z,7.53
2023-05-03T11:58:58.808Z,4.68
2023-05-03T12:01:28.426Z,5.43
2023-05-03T12:04:02.654Z,9.23
2023-05-03T12:06:34.207Z,9.40
2023-05-03T12:09:04.380Z,7.97
2023-05-03T12:11:44.809Z,10.55
2023-05-03T12:14:12.768Z,7.35
2023-05-03T12:16:50.835Z,8.30
2023-05-03T12:19:33.459Z,7.00
2023-05-03T12:22:18.079Z,12.18
2023-05-03T12:24:49.788Z,5.53
2023-05-03T12:27:19.272Z,7.05
2023-05-03T12:29:47.634Z,11.68
2023-05-03T12:32:15.214Z,5.43
2023-05-03T12:34:42.997Z,12.93
2023-05-03T12:37:16.763Z,7.57
2023-05-03T12:39:46.402Z,9.50
2023-05-03T12:42:20.648Z,8.33
2023-05-03T12:44:50.594Z,5.03
2023-05-03T12:47:28.039Z,10.57
2023-05-03T12:49:59.691Z,5.72
2023-05-03T12:54:56.927Z,7.97
2023-05-03T12:57:24.626Z,9.63
2023-05-03T13:00:02.181Z,9.52
2023-05-03T13:05:01.161Z,9.88
2023-05-03T13:07:31.150Z,8.27
2023-05-03T13:12:33.551Z,12.50
2023-05-03T13:15:02.900Z,11.38
2023-05-03T13:17:31.711Z,9.93
2023-05-03T13:19:58.609Z,7.38
2023-05-03T13:22:25.695Z,10.43
2023-05-03T13:24:52.544Z,17.70
2023-05-03T13:27:19.517Z,8.88
2023-05-03T13:29:49.172Z,7.22
2023-05-03T13:32:17.055Z,8.02
2023-05-03T13:34:44.667Z,9.13
2023-05-03T13:37:12.165Z,8.10
2023-05-03T13:39:39.093Z,9.20
2023-05-03T13:42:06.281Z,12.32
2023-05-03T13:44:33.339Z,9.73
2023-05-03T13:47:00.295Z,8.02
2023-05-03T13:49:27.289Z,7.63
2023-05-03T13:51:54.645Z,5.15
2023-05-03T13:54:21.583Z,14.20
2023-05-03T13:56:48.628Z,10.27
2023-05-03T13:59:16.556Z,13.98
2023-05-03T14:01:43.825Z,5.78
2023-05-03T14:04:11.042Z,12.57
2023-05-03T14:06:40.798Z,7.97
2023-05-03T14:09:08.979Z,10.05
2023-05-03T14:11:36.224Z,5.57
2023-05-03T14:14:03.776Z,7.07
2023-05-03T14:16:41.057Z,9.82
2023-05-03T14:19:12.596Z,11.68
2023-05-03T14:21:43.235Z,9.75
2023-05-03T14:24:10.615Z,5.63
2023-05-03T14:26:38.034Z,7.50
2023-05-03T14:29:06.025Z,5.43
2023-05-03T14:31:34.390Z,8.98
2023-05-03T14:34:01.500Z,6.80
2023-05-03T14:36:36.506Z,9.02
2023-05-03T14:39:04.368Z,12.00
2023-05-03T14:41:33.548Z,6.47
2023-05-03T14:44:01.129Z,9.57
2023-05-03T14:46:28.305Z,9.40
2023-05-03T14:48:55.763Z,8.35
2023-05-03T14:51:22.813Z,4.80
2023-05-03T14:53:49.776Z,11.27
2023-05-03T14:56:16.742Z,8.10
2023-05-03T14:58:43.768Z,9.93
2023-05-03T15:01:18.414Z,10.45
2023-05-03T15:03:45.753Z,11.20
2023-05-03T15:06:12.710Z,5.35
2023-05-03T15:08:39.941Z,5.32
2023-05-03T15:11:08.004Z,9.23
2023-05-03T15:13:35.372Z,7.88
2023-05-03T15:16:02.417Z,14.13
2023-05-03T15:18:29.538Z,7.90
2023-05-03T15:20:56.837Z,16.77
2023-05-03T15:23:23.857Z,5.80
2023-05-03T15:25:51.269Z,9.73
2023-05-03T15:28:18.180Z,10.85
2023-05-03T15:30:45.064Z,8.70
2023-05-03T15:33:12.374Z,8.00
2023-05-03T15:35:40.833Z,7.88
2023-05-03T15:38:08.636Z,9.90
2023-05-03T15:40:36.044Z,15.23
2023-05-03T15:43:03.074Z,8.35
2023-05-03T15:45:30.117Z,7.82
2023-05-03T15:47:57.175Z,16.95
2023-05-03T15:50:24.230Z,6.28
2023-05-03T15:52:51.217Z,9.07
2023-05-03T15:55:19.324Z,10.40
2023-05-03T15:57:46.648Z,6.60
2023-05-03T16:00:18.058Z,5.65
2023-05-03T16:02:45.016Z,7.65
2023-05-03T16:05:12.040Z,6.63
2023-05-03T16:07:39.139Z,3.33
2023-05-03T16:10:07.881Z,9.48
2023-05-03T16:12:35.561Z,7.75
2023-05-03T16:15:02.999Z,7.07
2023-05-03T16:17:29.981Z,4.22
2023-05-03T16:19:57.219Z,10.60
2023-05-03T16:22:24.131Z,7.35
2023-05-03T16:24:51.372Z,4.63
2023-05-03T16:27:18.395Z,10.18
2023-05-03T16:29:45.308Z,6.50
2023-05-03T16:32:12.447Z,6.57
2023-05-03T16:34:39.502Z,8.18
2023-05-03T16:37:06.498Z,6.35
2023-05-03T16:39:33.397Z,7.93
2023-05-03T16:42:01.184Z,4.95
2023-05-03T16:44:28.291Z,8.77
2023-05-03T16:46:55.289Z,7.20
2023-05-03T16:49:22.432Z,7.70
2023-05-03T16:51:49.454Z,5.47
2023-05-03T16:54:17.095Z,4.15
2023-05-03T16:56:44.572Z,7.60
2023-05-03T16:59:12.036Z,4.85
2023-05-03T17:01:39.074Z,4.95
2023-05-03T17:04:06.740Z,11.20
2023-05-03T17:06:33.765Z,8.95
2023-05-03T17:09:01.033Z,6.05
2023-05-03T17:11:28.233Z,4.10
2023-05-03T17:13:55.198Z,9.77
2023-05-03T17:16:22.921Z,8.32
2023-05-03T17:18:50.824Z,4.70
2023-05-03T17:21:19.242Z,10.30
2023-05-03T17:23:47.118Z,4.65
2023-05-03T17:26:14.580Z,3.30
2023-05-03T17:28:41.790Z,4.22
2023-05-03T17:31:08.853Z,6.03
2023-05-03T17:33:36.351Z,6.53
2023-05-03T17:36:07.121Z,13.70
2023-05-03T17:38:34.892Z,6.82
2023-05-03T17:41:09.224Z,9.07
2023-05-03T17:43:37.329Z,15.25
2023-05-03T17:46:12.152Z,5.57
2023-05-03T17:48:43.498Z,6.25
2023-05-03T17:51:12.711Z,6.13
2023-05-03T17:53:40.982Z,10.25
2023-05-03T17:56:18.965Z,9.43
2023-05-03T17:58:47.346Z,11.18
2023-05-03T18:01:16.131Z,7.88
2023-05-03T18:03:43.383Z,5.25
2023-05-03T18:06:12.382Z,9.40
2023-05-03T18:08:39.525Z,7.07
2023-05-03T18:11:06.480Z,5.20
2023-05-03T18:13:33.534Z,6.97
2023-05-03T18:16:01.076Z,6.20
2023-05-03T18:18:28.127Z,10.18
2023-05-03T18:21:03.819Z,3.83
2023-05-03T18:23:32.075Z,8.60
2023-05-03T18:26:00.011Z,9.15
2023-05-03T18:28:27.695Z,7.25
2023-05-03T18:30:57.776Z,8.05
2023-05-03T18:33:24.779Z,10.07
2023-05-03T18:35:52.998Z,5.80
2023-05-03T18:38:21.748Z,9.85
2023-05-03T18:40:49.685Z,5.13
2023-05-03T18:43:17.101Z,9.65
2023-05-03T18:45:44.598Z,6.35
2023-05-03T18:48:12.090Z,5.88
2023-05-03T18:50:39.584Z,7.07
2023-05-03T18:53:07.014Z,8.15
2023-05-03T18:55:33.936Z,8.95
2023-05-03T18:58:01.550Z,10.60
2023-05-03T19:00:28.623Z,5.28
2023-05-03T19:02:55.649Z,5.38
2023-05-03T19:05:22.957Z,11.60
2023-05-03T19:07:50.118Z,6.60
2023-05-03T19:10:18.254Z,13.75
2023-05-03T19:12:45.417Z,7.82
2023-05-03T19:15:12.529Z,10.85
2023-05-03T19:17:42.458Z,8.10
2023-05-03T19:20:12.827Z,12.90
2023-05-03T19:22:39.855Z,9.63
2023-05-03T19:25:07.358Z,5.85
2023-05-03T19:27:34.425Z,10.90
2023-05-03T19:30:01.742Z,9.20
2023-05-03T19:32:29.493Z,5.72
2023-05-03T19:34:56.643Z,5.25
2023-05-03T19:37:23.712Z,9.93
2023-05-03T19:39:50.842Z,6.50
2023-05-03T19:42:17.907Z,7.78
2023-05-03T19:44:44.976Z,6.70
2023-05-03T19:47:11.884Z,5.82
2023-05-03T19:49:39.350Z,7.80
2023-05-03T19:52:06.324Z,4.63
2023-05-03T19:54:33.494Z,5.25
2023-05-03T19:57:07.669Z,7.78
2023-05-03T19:59:35.024Z,5.43
2023-05-03T20:02:02.154Z,8.40
2023-05-03T20:04:29.197Z,8.55
2023-05-03T20:06:57.378Z,9.02
2023-05-03T20:09:24.657Z,8.85
2023-05-03T20:11:56.713Z,11.15
2023-05-03T20:14:23.759Z,4.90
2023-05-03T20:16:50.786Z,9.48
2023-05-03T20:19:17.825Z,6.40
2023-05-03T20:21:44.877Z,10.75
2023-05-03T20:24:11.812Z,6.97
2023-05-03T20:26:38.915Z,11.98
2023-05-03T20:29:06.133Z,8.13
2023-05-03T20:31:34.092Z,5.80
2023-05-03T20:34:01.504Z,6.38
2023-05-03T20:36:28.518Z,5.05
2023-05-03T20:38:56.600Z,5.28
2023-05-03T20:41:24.149Z,12.82
2023-05-03T20:43:55.142Z,7.95
2023-05-03T20:46:22.163Z,7.05
2023-05-03T20:48:50.067Z,4.40
2023-05-03T20:51:17.426Z,5.72
2023-05-03T20:53:44.733Z,11.50
2023-05-03T20:56:12.628Z,7.50
2023-05-03T20:58:39.602Z,11.95
2023-05-03T21:01:08.124Z,11.20
2023-05-03T21:03:35.686Z,7.50
2023-05-03T21:06:02.948Z,7.93
2023-05-03T21:08:29.996Z,10.20
2023-05-03T21:10:57.096Z,8.02
2023-05-03T21:13:48.523Z,11.20
2023-05-03T21:16:18.022Z,4.57
2023-05-03T21:18:45.077Z,8.85
2023-05-03T21:21:12.253Z,9.68
2023-05-03T21:23:39.508Z,11.45
2023-05-03T21:26:06.547Z,9.27
2023-05-03T21:28:33.792Z,11.57
2023-05-03T21:31:00.938Z,6.50
2023-05-03T21:33:28.030Z,15.35
2023-05-03T21:35:58.738Z,5.60
2023-05-03T21:38:25.878Z,10.45
2023-05-03T21:40:53.969Z,8.05
2023-05-03T21:43:21.473Z,10.43
2023-05-03T21:45:49.036Z,10.75
2023-05-03T21:48:16.140Z,8.93
2023-05-03T21:50:43.712Z,10.07
2023-05-03T21:53:10.602Z,10.95
2023-05-03T21:55:38.614Z,8.82
2023-05-03T21:58:05.601Z,8.60
2023-05-03T22:00:33.019Z,6.53
2023-05-03T22:03:00.296Z,8.25
2023-05-03T22:05:27.693Z,9.63
2023-05-03T22:07:54.807Z,7.13
2023-05-03T22:10:21.858Z,8.95
2023-05-03T22:12:49.047Z,8.30
2023-05-03T22:15:18.673Z,9.52
2023-05-03T22:17:46.102Z,6.65
2023-05-03T22:20:13.237Z,10.05
2023-05-03T22:22:40.171Z,12.07
2023-05-03T22:25:07.507Z,6.57
2023-05-03T22:27:34.428Z,9.80
2023-05-03T22:30:01.584Z,8.18
2023-05-03T22:32:28.890Z,9.57
2023-05-03T22:34:58.669Z,6.20
2023-05-03T22:37:25.625Z,10.13
2023-05-03T22:39:52.684Z,10.00
2023-05-03T22:42:21.544Z,8.73
2023-05-03T22:44:48.528Z,7.60
2023-05-03T22:47:15.842Z,7.35
2023-05-03T22:49:43.732Z,17.85
2023-05-03T22:52:10.832Z,5.35
2023-05-03T22:54:37.917Z,20.88
2023-05-03T22:57:04.972Z,14.75
2023-05-03T22:59:32.075Z,52.03
2023-05-03T23:01:59.209Z,25.23
2023-05-03T23:04:26.317Z,22.25
2023-05-03T23:06:54.202Z,31.38
2023-05-03T23:09:21.561Z,11.10
2023-05-03T23:11:48.864Z,10.00
2023-05-03T23:14:16.170Z,6.30
2023-05-03T23:16:43.099Z,108.82
2023-05-03T23:19:10.839Z,151.38
2023-05-03T23:21:37.918Z,49.28
2023-05-03T23:24:05.339Z,32.53
2023-05-03T23:26:32.248Z,53.72
2023-05-03T23:28:59.849Z,45.13
2023-05-03T23:31:31.610Z,58.07
2023-05-03T23:34:00.272Z,44.28
2023-05-03T23:36:27.922Z,17.55
2023-05-03T23:38:54.852Z,19.75
2023-05-03T23:41:21.965Z,14.50
2023-05-03T23:43:48.965Z,18.30
2023-05-03T23:46:16.034Z,40.35
2023-05-03T23:48:43.224Z,125.68
2023-05-03T23:51:10.214Z,109.05
2023-05-03T23:53:37.838Z,162.75
2023-05-03T23:56:04.935Z,49.83
2023-05-03T23:58:31.989Z,94.22
